sensor_id;sensor_type;location;lat;lon;timestamp;P1;durP1;ratioP1;P2;durP2;ratioP2
67564;SDS011;54393;53.556;49.216;2023-07-13T00:00:46;1.10;;;1.10;;
67564;SDS011;54393;53.556;49.216;2023-07-13T00:03:13;1.30;;;1.20;;
67564;SDS011;54393;53.556;49.216;2023-07-13T00:05:40;1.48;;;1.37;;
67564;SDS011;54393;53.556;49.216;2023-07-13T00:08:06;1.65;;;1.08;;
67564;SDS011;54393;53.556;49.216;2023-07-13T00:10:33;1.60;;;1.50;;
67564;SDS011;54393;53.556;49.216;2023-07-13T00:13:04;1.20;;;1.12;;
67564;SDS011;54393;53.556;49.216;2023-07-13T00:15:30;0.85;;;0.85;;
67564;SDS011;54393;53.556;49.216;2023-07-13T00:17:57;2.25;;;1.25;;
67564;SDS011;54393;53.556;49.216;2023-07-13T00:20:26;2.42;;;1.17;;
67564;SDS011;54393;53.556;49.216;2023-07-13T00:22:52;1.37;;;0.90;;
67564;SDS011;54393;53.556;49.216;2023-07-13T00:25:20;1.30;;;1.20;;
67564;SDS011;54393;53.556;49.216;2023-07-13T00:27:49;1.48;;;1.37;;
67564;SDS011;54393;53.556;49.216;2023-07-13T00:30:16;1.20;;;1.20;;
67564;SDS011;54393;53.556;49.216;2023-07-13T00:32:42;2.22;;;1.20;;
67564;SDS011;54393;53.556;49.216;2023-07-13T00:35:09;1.40;;;1.30;;
67564;SDS011;54393;53.556;49.216;2023-07-13T00:37:38;3.05;;;1.55;;
67564;SDS011;54393;53.556;49.216;2023-07-13T00:40:05;0.90;;;0.90;;
67564;SDS011;54393;53.556;49.216;2023-07-13T00:42:32;1.27;;;1.17;;
67564;SDS011;54393;53.556;49.216;2023-07-13T00:45:06;1.77;;;1.10;;
67564;SDS011;54393;53.556;49.216;2023-07-13T00:47:33;0.90;;;0.90;;
67564;SDS011;54393;53.556;49.216;2023-07-13T00:50:00;1.12;;;1.12;;
67564;SDS011;54393;53.556;49.216;2023-07-13T00:52:27;1.30;;;1.20;;
67564;SDS011;54393;53.556;49.216;2023-07-13T00:54:54;1.10;;;1.10;;
67564;SDS011;54393;53.556;49.216;2023-07-13T00:57:21;1.08;;;1.08;;
67564;SDS011;54393;53.556;49.216;2023-07-13T00:59:49;1.30;;;1.20;;
67564;SDS011;54393;53.556;49.216;2023-07-13T01:02:17;1.10;;;1.10;;
67564;SDS011;54393;53.556;49.216;2023-07-13T01:04:44;1.42;;;1.20;;
67564;SDS011;54393;53.556;49.216;2023-07-13T01:07:11;1.30;;;1.20;;
67564;SDS011;54393;53.556;49.216;2023-07-13T01:09:37;1.30;;;1.30;;
67564;SDS011;54393;53.556;49.216;2023-07-13T01:12:04;1.48;;;1.30;;
67564;SDS011;54393;53.556;49.216;2023-07-13T01:14:31;1.48;;;1.27;;
67564;SDS011;54393;53.556;49.216;2023-07-13T01:16:57;1.40;;;1.30;;
67564;SDS011;54393;53.556;49.216;2023-07-13T01:19:42;3.17;;;1.33;;
67564;SDS011;54393;53.556;49.216;2023-07-13T01:22:13;1.17;;;1.12;;
67564;SDS011;54393;53.556;49.216;2023-07-13T01:24:41;1.62;;;1.30;;
67564;SDS011;54393;53.556;49.216;2023-07-13T01:27:10;1.60;;;1.30;;
67564;SDS011;54393;53.556;49.216;2023-07-13T01:29:38;1.33;;;1.23;;
67564;SDS011;54393;53.556;49.216;2023-07-13T01:32:10;0.98;;;0.95;;
67564;SDS011;54393;53.556;49.216;2023-07-13T01:34:40;1.45;;;1.17;;
67564;SDS011;54393;53.556;49.216;2023-07-13T01:37:08;2.40;;;1.20;;
67564;SDS011;54393;53.556;49.216;2023-07-13T01:39:35;1.30;;;1.17;;
67564;SDS011;54393;53.556;49.216;2023-07-13T01:42:02;1.50;;;1.40;;
67564;SDS011;54393;53.556;49.216;2023-07-13T01:44:29;1.50;;;1.30;;
67564;SDS011;54393;53.556;49.216;2023-07-13T01:46:56;1.42;;;1.40;;
67564;SDS011;54393;53.556;49.216;2023-07-13T01:49:22;1.62;;;1.52;;
67564;SDS011;54393;53.556;49.216;2023-07-13T01:51:48;1.40;;;1.30;;
67564;SDS011;54393;53.556;49.216;2023-07-13T01:54:15;1.58;;;1.48;;
67564;SDS011;54393;53.556;49.216;2023-07-13T01:56:42;1.50;;;1.37;;
67564;SDS011;54393;53.556;49.216;2023-07-13T01:59:08;1.50;;;1.37;;
67564;SDS011;54393;53.556;49.216;2023-07-13T02:01:35;1.40;;;1.30;;
67564;SDS011;54393;53.556;49.216;2023-07-13T02:04:02;1.83;;;1.40;;
67564;SDS011;54393;53.556;49.216;2023-07-13T02:06:28;1.87;;;1.40;;
67564;SDS011;54393;53.556;49.216;2023-07-13T02:08:55;1.45;;;1.33;;
67564;SDS011;54393;53.556;49.216;2023-07-13T02:11:22;1.45;;;1.35;;
67564;SDS011;54393;53.556;49.216;2023-07-13T02:13:50;1.70;;;1.37;;
67564;SDS011;54393;53.556;49.216;2023-07-13T02:16:17;1.40;;;1.30;;
67564;SDS011;54393;53.556;49.216;2023-07-13T02:18:43;1.80;;;1.70;;
67564;SDS011;54393;53.556;49.216;2023-07-13T02:21:10;2.33;;;1.55;;
67564;SDS011;54393;53.556;49.216;2023-07-13T02:23:36;1.40;;;1.30;;
67564;SDS011;54393;53.556;49.216;2023-07-13T02:26:03;1.62;;;1.20;;
67564;SDS011;54393;53.556;49.216;2023-07-13T02:28:30;1.87;;;1.42;;
67564;SDS011;54393;53.556;49.216;2023-07-13T02:31:03;1.70;;;1.60;;
67564;SDS011;54393;53.556;49.216;2023-07-13T02:33:33;1.40;;;1.30;;
67564;SDS011;54393;53.556;49.216;2023-07-13T02:35:59;1.33;;;1.23;;
67564;SDS011;54393;53.556;49.216;2023-07-13T02:38:26;1.45;;;1.35;;
67564;SDS011;54393;53.556;49.216;2023-07-13T02:40:53;2.55;;;1.52;;
67564;SDS011;54393;53.556;49.216;2023-07-13T02:43:19;1.42;;;1.30;;
67564;SDS011;54393;53.556;49.216;2023-07-13T02:45:46;2.25;;;1.55;;
67564;SDS011;54393;53.556;49.216;2023-07-13T02:48:13;1.37;;;1.27;;
67564;SDS011;54393;53.556;49.216;2023-07-13T02:50:40;1.25;;;1.02;;
67564;SDS011;54393;53.556;49.216;2023-07-13T02:53:06;1.30;;;1.20;;
67564;SDS011;54393;53.556;49.216;2023-07-13T02:55:33;1.42;;;1.33;;
67564;SDS011;54393;53.556;49.216;2023-07-13T02:57:59;1.33;;;1.25;;
67564;SDS011;54393;53.556;49.216;2023-07-13T03:00:26;2.60;;;1.37;;
67564;SDS011;54393;53.556;49.216;2023-07-13T03:02:53;1.60;;;1.27;;
67564;SDS011;54393;53.556;49.216;2023-07-13T03:05:22;1.50;;;1.40;;
67564;SDS011;54393;53.556;49.216;2023-07-13T03:07:48;1.98;;;1.05;;
67564;SDS011;54393;53.556;49.216;2023-07-13T03:10:15;1.02;;;1.02;;
67564;SDS011;54393;53.556;49.216;2023-07-13T03:12:41;1.00;;;1.00;;
67564;SDS011;54393;53.556;49.216;2023-07-13T03:15:08;1.33;;;1.23;;
67564;SDS011;54393;53.556;49.216;2023-07-13T03:17:34;1.30;;;1.15;;
67564;SDS011;54393;53.556;49.216;2023-07-13T03:20:01;1.30;;;1.20;;
67564;SDS011;54393;53.556;49.216;2023-07-13T03:22:28;1.50;;;1.40;;
67564;SDS011;54393;53.556;49.216;2023-07-13T03:24:55;1.55;;;1.27;;
67564;SDS011;54393;53.556;49.216;2023-07-13T03:27:21;1.60;;;1.50;;
67564;SDS011;54393;53.556;49.216;2023-07-13T03:29:48;1.60;;;1.50;;
67564;SDS011;54393;53.556;49.216;2023-07-13T03:32:14;1.95;;;1.33;;
67564;SDS011;54393;53.556;49.216;2023-07-13T03:34:41;3.10;;;1.30;;
67564;SDS011;54393;53.556;49.216;2023-07-13T03:37:07;1.30;;;1.30;;
67564;SDS011;54393;53.556;49.216;2023-07-13T03:39:34;1.70;;;1.52;;
67564;SDS011;54393;53.556;49.216;2023-07-13T03:42:00;1.25;;;1.15;;
67564;SDS011;54393;53.556;49.216;2023-07-13T03:44:27;1.55;;;1.20;;
67564;SDS011;54393;53.556;49.216;2023-07-13T03:46:53;1.62;;;1.00;;
67564;SDS011;54393;53.556;49.216;2023-07-13T03:49:20;1.30;;;1.25;;
67564;SDS011;54393;53.556;49.216;2023-07-13T03:51:46;2.75;;;1.20;;
67564;SDS011;54393;53.556;49.216;2023-07-13T03:54:15;1.20;;;1.10;;
67564;SDS011;54393;53.556;49.216;2023-07-13T03:56:42;2.22;;;1.42;;
67564;SDS011;54393;53.556;49.216;2023-07-13T03:59:08;4.78;;;2.15;;
67564;SDS011;54393;53.556;49.216;2023-07-13T04:01:34;3.78;;;1.65;;
67564;SDS011;54393;53.556;49.216;2023-07-13T04:04:01;6.70;;;1.85;;
67564;SDS011;54393;53.556;49.216;2023-07-13T04:06:28;5.40;;;2.10;;
67564;SDS011;54393;53.556;49.216;2023-07-13T04:08:56;5.43;;;1.62;;
67564;SDS011;54393;53.556;49.216;2023-07-13T04:11:24;3.00;;;1.65;;
67564;SDS011;54393;53.556;49.216;2023-07-13T04:13:54;4.22;;;1.67;;
67564;SDS011;54393;53.556;49.216;2023-07-13T04:16:21;4.65;;;1.95;;
67564;SDS011;54393;53.556;49.216;2023-07-13T04:18:48;3.15;;;1.73;;
67564;SDS011;54393;53.556;49.216;2023-07-13T04:21:15;4.43;;;2.30;;
67564;SDS011;54393;53.556;49.216;2023-07-13T04:23:42;5.53;;;1.58;;
67564;SDS011;54393;53.556;49.216;2023-07-13T04:26:09;3.92;;;1.48;;
67564;SDS011;54393;53.556;49.216;2023-07-13T04:28:35;5.00;;;1.77;;
67564;SDS011;54393;53.556;49.216;2023-07-13T04:31:02;3.40;;;1.62;;
67564;SDS011;54393;53.556;49.216;2023-07-13T04:33:28;6.68;;;1.48;;
67564;SDS011;54393;53.556;49.216;2023-07-13T04:35:55;3.80;;;1.95;;
67564;SDS011;54393;53.556;49.216;2023-07-13T04:38:29;9.07;;;2.05;;
67564;SDS011;54393;53.556;49.216;2023-07-13T04:40:57;3.28;;;1.87;;
67564;SDS011;54393;53.556;49.216;2023-07-13T04:43:25;6.62;;;1.98;;
67564;SDS011;54393;53.556;49.216;2023-07-13T04:45:51;3.17;;;1.58;;
67564;SDS011;54393;53.556;49.216;2023-07-13T04:48:18;4.80;;;1.52;;
67564;SDS011;54393;53.556;49.216;2023-07-13T04:50:46;6.10;;;2.15;;
67564;SDS011;54393;53.556;49.216;2023-07-13T04:53:12;4.82;;;2.10;;
67564;SDS011;54393;53.556;49.216;2023-07-13T04:55:39;3.03;;;1.77;;
67564;SDS011;54393;53.556;49.216;2023-07-13T04:58:06;4.45;;;2.03;;
67564;SDS011;54393;53.556;49.216;2023-07-13T05:00:32;2.10;;;1.40;;
67564;SDS011;54393;53.556;49.216;2023-07-13T05:02:59;1.60;;;1.50;;
67564;SDS011;54393;53.556;49.216;2023-07-13T05:05:25;4.00;;;1.50;;
67564;SDS011;54393;53.556;49.216;2023-07-13T05:07:53;2.97;;;1.55;;
67564;SDS011;54393;53.556;49.216;2023-07-13T05:10:19;2.60;;;1.55;;
67564;SDS011;54393;53.556;49.216;2023-07-13T05:12:46;2.33;;;1.48;;
67564;SDS011;54393;53.556;49.216;2023-07-13T05:15:12;1.83;;;1.70;;
67564;SDS011;54393;53.556;49.216;2023-07-13T05:17:39;3.08;;;1.55;;
67564;SDS011;54393;53.556;49.216;2023-07-13T05:20:06;2.60;;;1.50;;
67564;SDS011;54393;53.556;49.216;2023-07-13T05:22:33;1.95;;;1.75;;
67564;SDS011;54393;53.556;49.216;2023-07-13T05:25:01;2.00;;;1.60;;
67564;SDS011;54393;53.556;49.216;2023-07-13T05:27:29;2.37;;;1.42;;
67564;SDS011;54393;53.556;49.216;2023-07-13T05:29:56;4.72;;;1.40;;
67564;SDS011;54393;53.556;49.216;2023-07-13T05:32:22;2.08;;;1.73;;
67564;SDS011;54393;53.556;49.216;2023-07-13T05:34:49;2.20;;;1.67;;
67564;SDS011;54393;53.556;49.216;2023-07-13T05:37:15;2.42;;;1.60;;
67564;SDS011;54393;53.556;49.216;2023-07-13T05:39:42;1.50;;;1.10;;
67564;SDS011;54393;53.556;49.216;2023-07-13T05:42:08;5.05;;;1.92;;
67564;SDS011;54393;53.556;49.216;2023-07-13T05:44:34;1.87;;;1.42;;
67564;SDS011;54393;53.556;49.216;2023-07-13T05:47:01;2.03;;;1.27;;
67564;SDS011;54393;53.556;49.216;2023-07-13T05:49:29;2.40;;;1.58;;
67564;SDS011;54393;53.556;49.216;2023-07-13T05:51:56;2.90;;;1.58;;
67564;SDS011;54393;53.556;49.216;2023-07-13T05:54:23;3.08;;;1.35;;
67564;SDS011;54393;53.556;49.216;2023-07-13T05:56:49;1.77;;;1.67;;
67564;SDS011;54393;53.556;49.216;2023-07-13T05:59:17;1.55;;;1.35;;
67564;SDS011;54393;53.556;49.216;2023-07-13T06:01:43;2.37;;;1.30;;
67564;SDS011;54393;53.556;49.216;2023-07-13T06:04:10;4.43;;;1.58;;
67564;SDS011;54393;53.556;49.216;2023-07-13T06:06:36;2.10;;;1.40;;
67564;SDS011;54393;53.556;49.216;2023-07-13T06:09:03;1.48;;;1.35;;
67564;SDS011;54393;53.556;49.216;2023-07-13T06:11:29;1.45;;;1.10;;
67564;SDS011;54393;53.556;49.216;2023-07-13T06:13:56;1.83;;;1.40;;
67564;SDS011;54393;53.556;49.216;2023-07-13T06:16:22;3.53;;;1.48;;
67564;SDS011;54393;53.556;49.216;2023-07-13T06:18:49;1.37;;;1.27;;
67564;SDS011;54393;53.556;49.216;2023-07-13T06:21:17;1.40;;;1.30;;
67564;SDS011;54393;53.556;49.216;2023-07-13T06:23:46;1.62;;;1.37;;
67564;SDS011;54393;53.556;49.216;2023-07-13T06:26:13;1.40;;;1.30;;
67564;SDS011;54393;53.556;49.216;2023-07-13T06:28:40;3.30;;;1.30;;
67564;SDS011;54393;53.556;49.216;2023-07-13T06:31:07;3.12;;;1.48;;
67564;SDS011;54393;53.556;49.216;2023-07-13T06:33:34;2.47;;;1.17;;
67564;SDS011;54393;53.556;49.216;2023-07-13T06:36:02;1.77;;;1.30;;
67564;SDS011;54393;53.556;49.216;2023-07-13T06:38:30;3.10;;;1.80;;
67564;SDS011;54393;53.556;49.216;2023-07-13T06:40:56;1.65;;;1.50;;
67564;SDS011;54393;53.556;49.216;2023-07-13T06:43:23;1.90;;;1.45;;
67564;SDS011;54393;53.556;49.216;2023-07-13T06:45:50;1.45;;;1.35;;
67564;SDS011;54393;53.556;49.216;2023-07-13T06:48:17;1.67;;;1.45;;
67564;SDS011;54393;53.556;49.216;2023-07-13T06:50:44;4.60;;;1.48;;
67564;SDS011;54393;53.556;49.216;2023-07-13T06:53:11;1.40;;;1.30;;
67564;SDS011;54393;53.556;49.216;2023-07-13T06:55:38;4.35;;;1.70;;
67564;SDS011;54393;53.556;49.216;2023-07-13T06:58:05;5.43;;;2.03;;
67564;SDS011;54393;53.556;49.216;2023-07-13T07:00:32;2.03;;;1.60;;
67564;SDS011;54393;53.556;49.216;2023-07-13T07:02:58;2.47;;;1.55;;
67564;SDS011;54393;53.556;49.216;2023-07-13T07:05:25;1.62;;;1.52;;
67564;SDS011;54393;53.556;49.216;2023-07-13T07:07:55;1.55;;;1.45;;
67564;SDS011;54393;53.556;49.216;2023-07-13T07:10:21;3.40;;;1.85;;
67564;SDS011;54393;53.556;49.216;2023-07-13T07:12:49;1.60;;;1.50;;
67564;SDS011;54393;53.556;49.216;2023-07-13T07:15:16;4.93;;;1.77;;
67564;SDS011;54393;53.556;49.216;2023-07-13T07:17:43;2.08;;;1.85;;
67564;SDS011;54393;53.556;49.216;2023-07-13T07:20:10;1.70;;;1.60;;
67564;SDS011;54393;53.556;49.216;2023-07-13T07:22:36;1.50;;;1.40;;
67564;SDS011;54393;53.556;49.216;2023-07-13T07:25:03;5.00;;;1.90;;
67564;SDS011;54393;53.556;49.216;2023-07-13T07:27:30;2.78;;;1.58;;
67564;SDS011;54393;53.556;49.216;2023-07-13T07:29:57;2.67;;;1.70;;
67564;SDS011;54393;53.556;49.216;2023-07-13T07:32:24;1.70;;;1.60;;
67564;SDS011;54393;53.556;49.216;2023-07-13T07:34:50;2.72;;;1.70;;
67564;SDS011;54393;53.556;49.216;2023-07-13T07:37:17;2.92;;;1.70;;
67564;SDS011;54393;53.556;49.216;2023-07-13T07:39:43;1.80;;;1.70;;
67564;SDS011;54393;53.556;49.216;2023-07-13T07:42:10;2.55;;;1.77;;
67564;SDS011;54393;53.556;49.216;2023-07-13T07:44:38;1.58;;;1.48;;
67564;SDS011;54393;53.556;49.216;2023-07-13T07:47:05;1.62;;;1.52;;
67564;SDS011;54393;53.556;49.216;2023-07-13T07:49:32;1.48;;;1.37;;
67564;SDS011;54393;53.556;49.216;2023-07-13T07:52:00;1.70;;;1.60;;
67564;SDS011;54393;53.556;49.216;2023-07-13T07:54:26;1.67;;;1.58;;
67564;SDS011;54393;53.556;49.216;2023-07-13T07:56:53;2.78;;;1.75;;
67564;SDS011;54393;53.556;49.216;2023-07-13T07:59:19;2.45;;;1.70;;
67564;SDS011;54393;53.556;49.216;2023-07-13T08:01:46;1.90;;;1.80;;
67564;SDS011;54393;53.556;49.216;2023-07-13T08:04:15;2.70;;;1.85;;
67564;SDS011;54393;53.556;49.216;2023-07-13T08:06:42;1.80;;;1.70;;
67564;SDS011;54393;53.556;49.216;2023-07-13T08:09:09;1.73;;;1.62;;
67564;SDS011;54393;53.556;49.216;2023-07-13T08:11:35;1.60;;;1.50;;
67564;SDS011;54393;53.556;49.216;2023-07-13T08:14:02;1.70;;;1.60;;
67564;SDS011;54393;53.556;49.216;2023-07-13T08:16:28;1.75;;;1.55;;
67564;SDS011;54393;53.556;49.216;2023-07-13T08:18:55;3.53;;;1.95;;
67564;SDS011;54393;53.556;49.216;2023-07-13T08:21:21;1.95;;;1.60;;
67564;SDS011;54393;53.556;49.216;2023-07-13T08:23:48;2.75;;;1.70;;
67564;SDS011;54393;53.556;49.216;2023-07-13T08:26:14;1.60;;;1.50;;
67564;SDS011;54393;53.556;49.216;2023-07-13T08:28:41;1.62;;;1.30;;
67564;SDS011;54393;53.556;49.216;2023-07-13T08:31:07;1.92;;;1.52;;
67564;SDS011;54393;53.556;49.216;2023-07-13T08:33:35;2.10;;;1.58;;
67564;SDS011;54393;53.556;49.216;2023-07-13T08:36:02;1.50;;;1.23;;
67564;SDS011;54393;53.556;49.216;2023-07-13T08:38:29;2.75;;;1.45;;
67564;SDS011;54393;53.556;49.216;2023-07-13T08:40:56;2.78;;;1.42;;
67564;SDS011;54393;53.556;49.216;2023-07-13T08:43:26;1.55;;;1.17;;
67564;SDS011;54393;53.556;49.216;2023-07-13T08:46:02;2.42;;;1.42;;
67564;SDS011;54393;53.556;49.216;2023-07-13T08:51:26;2.08;;;1.40;;
67564;SDS011;54393;53.556;49.216;2023-07-13T08:54:00;1.40;;;1.30;;
67564;SDS011;54393;53.556;49.216;2023-07-13T08:56:30;1.65;;;1.50;;
67564;SDS011;54393;53.556;49.216;2023-07-13T08:59:01;2.15;;;1.30;;
67564;SDS011;54393;53.556;49.216;2023-07-13T09:04:34;1.55;;;1.45;;
67564;SDS011;54393;53.556;49.216;2023-07-13T09:07:12;1.73;;;1.60;;
67564;SDS011;54393;53.556;49.216;2023-07-13T09:15:21;1.70;;;1.60;;
67564;SDS011;54393;53.556;49.216;2023-07-13T09:17:51;2.12;;;1.65;;
67564;SDS011;54393;53.556;49.216;2023-07-13T09:20:29;1.60;;;1.50;;
67564;SDS011;54393;53.556;49.216;2023-07-13T09:22:59;1.75;;;1.62;;
67564;SDS011;54393;53.556;49.216;2023-07-13T09:25:34;2.22;;;1.40;;
67564;SDS011;54393;53.556;49.216;2023-07-13T09:31:04;1.80;;;1.70;;
67564;SDS011;54393;53.556;49.216;2023-07-13T09:33:31;1.77;;;1.67;;
67564;SDS011;54393;53.556;49.216;2023-07-13T09:35:58;2.72;;;1.60;;
67564;SDS011;54393;53.556;49.216;2023-07-13T09:38:25;1.73;;;1.60;;
67564;SDS011;54393;53.556;49.216;2023-07-13T09:43:25;1.80;;;1.60;;
67564;SDS011;54393;53.556;49.216;2023-07-13T09:45:54;1.80;;;1.70;;
67564;SDS011;54393;53.556;49.216;2023-07-13T09:48:21;1.60;;;1.50;;
67564;SDS011;54393;53.556;49.216;2023-07-13T09:50:49;1.33;;;1.27;;
67564;SDS011;54393;53.556;49.216;2023-07-13T09:53:21;1.85;;;1.70;;
67564;SDS011;54393;53.556;49.216;2023-07-13T09:55:48;1.85;;;1.75;;
67564;SDS011;54393;53.556;49.216;2023-07-13T09:58:25;2.10;;;1.90;;
67564;SDS011;54393;53.556;49.216;2023-07-13T10:00:58;2.53;;;1.50;;
67564;SDS011;54393;53.556;49.216;2023-07-13T10:03:29;1.50;;;1.40;;
67564;SDS011;54393;53.556;49.216;2023-07-13T10:06:22;2.95;;;1.62;;
67564;SDS011;54393;53.556;49.216;2023-07-13T10:08:49;3.58;;;1.83;;
67564;SDS011;54393;53.556;49.216;2023-07-13T10:11:37;2.12;;;1.33;;
67564;SDS011;54393;53.556;49.216;2023-07-13T10:16:35;1.80;;;1.50;;
67564;SDS011;54393;53.556;49.216;2023-07-13T10:19:03;1.77;;;1.67;;
67564;SDS011;54393;53.556;49.216;2023-07-13T10:21:44;2.90;;;1.60;;
67564;SDS011;54393;53.556;49.216;2023-07-13T10:24:23;1.50;;;1.40;;
67564;SDS011;54393;53.556;49.216;2023-07-13T10:27:01;1.75;;;1.52;;
67564;SDS011;54393;53.556;49.216;2023-07-13T10:29:52;2.45;;;1.62;;
67564;SDS011;54393;53.556;49.216;2023-07-13T10:32:35;1.60;;;1.50;;
67564;SDS011;54393;53.556;49.216;2023-07-13T10:35:02;1.77;;;1.58;;
67564;SDS011;54393;53.556;49.216;2023-07-13T10:37:30;2.08;;;1.42;;
67564;SDS011;54393;53.556;49.216;2023-07-13T10:40:24;1.75;;;1.60;;
67564;SDS011;54393;53.556;49.216;2023-07-13T10:42:57;2.45;;;1.85;;
67564;SDS011;54393;53.556;49.216;2023-07-13T10:45:24;1.52;;;1.37;;
67564;SDS011;54393;53.556;49.216;2023-07-13T10:47:51;1.83;;;1.42;;
67564;SDS011;54393;53.556;49.216;2023-07-13T10:50:21;1.35;;;1.30;;
67564;SDS011;54393;53.556;49.216;2023-07-13T10:52:51;1.90;;;1.40;;
67564;SDS011;54393;53.556;49.216;2023-07-13T10:55:40;1.50;;;1.40;;
67564;SDS011;54393;53.556;49.216;2023-07-13T10:58:20;1.92;;;1.48;;
67564;SDS011;54393;53.556;49.216;2023-07-13T11:00:53;1.40;;;1.40;;
67564;SDS011;54393;53.556;49.216;2023-07-13T11:03:28;1.40;;;1.30;;
67564;SDS011;54393;53.556;49.216;2023-07-13T11:16:34;1.12;;;1.12;;
67564;SDS011;54393;53.556;49.216;2023-07-13T11:21:32;1.52;;;1.42;;
67564;SDS011;54393;53.556;49.216;2023-07-13T11:24:03;2.40;;;1.67;;
67564;SDS011;54393;53.556;49.216;2023-07-13T11:31:56;1.60;;;1.48;;
67564;SDS011;54393;53.556;49.216;2023-07-13T11:34:28;1.83;;;1.65;;
67564;SDS011;54393;53.556;49.216;2023-07-13T11:37:00;1.58;;;1.48;;
67564;SDS011;54393;53.556;49.216;2023-07-13T11:42:00;2.87;;;1.50;;
67564;SDS011;54393;53.556;49.216;2023-07-13T11:44:29;1.50;;;1.40;;
67564;SDS011;54393;53.556;49.216;2023-07-13T11:46:58;2.22;;;1.45;;
67564;SDS011;54393;53.556;49.216;2023-07-13T11:49:29;1.27;;;1.17;;
67564;SDS011;54393;53.556;49.216;2023-07-13T11:51:57;1.45;;;1.35;;
67564;SDS011;54393;53.556;49.216;2023-07-13T11:54:26;1.35;;;1.25;;
67564;SDS011;54393;53.556;49.216;2023-07-13T11:56:59;1.40;;;1.30;;
67564;SDS011;54393;53.556;49.216;2023-07-13T11:59:31;1.58;;;1.50;;
67564;SDS011;54393;53.556;49.216;2023-07-13T12:01:58;1.70;;;1.60;;
67564;SDS011;54393;53.556;49.216;2023-07-13T12:04:30;1.48;;;1.37;;
67564;SDS011;54393;53.556;49.216;2023-07-13T12:06:58;1.75;;;1.50;;
67564;SDS011;54393;53.556;49.216;2023-07-13T12:09:29;2.92;;;1.45;;
67564;SDS011;54393;53.556;49.216;2023-07-13T12:11:56;1.40;;;1.30;;
67564;SDS011;54393;53.556;49.216;2023-07-13T12:14:25;1.98;;;1.83;;
67564;SDS011;54393;53.556;49.216;2023-07-13T12:16:52;1.92;;;1.73;;
67564;SDS011;54393;53.556;49.216;2023-07-13T12:19:28;1.70;;;1.60;;
67564;SDS011;54393;53.556;49.216;2023-07-13T12:21:56;1.83;;;1.30;;
67564;SDS011;54393;53.556;49.216;2023-07-13T12:24:23;1.60;;;1.50;;
67564;SDS011;54393;53.556;49.216;2023-07-13T12:27:01;1.67;;;1.58;;
67564;SDS011;54393;53.556;49.216;2023-07-13T12:29:32;2.80;;;1.50;;
67564;SDS011;54393;53.556;49.216;2023-07-13T12:31:58;1.92;;;1.83;;
67564;SDS011;54393;53.556;49.216;2023-07-13T12:34:25;2.00;;;1.80;;
67564;SDS011;54393;53.556;49.216;2023-07-13T12:36:59;2.08;;;1.55;;
67564;SDS011;54393;53.556;49.216;2023-07-13T12:42:00;2.00;;;1.52;;
67564;SDS011;54393;53.556;49.216;2023-07-13T12:44:54;2.30;;;2.05;;
67564;SDS011;54393;53.556;49.216;2023-07-13T12:47:23;2.37;;;2.10;;
67564;SDS011;54393;53.556;49.216;2023-07-13T12:49:53;1.98;;;1.85;;
67564;SDS011;54393;53.556;49.216;2023-07-13T12:52:27;2.10;;;2.00;;
67564;SDS011;54393;53.556;49.216;2023-07-13T12:54:56;3.25;;;2.00;;
67564;SDS011;54393;53.556;49.216;2023-07-13T12:57:31;2.92;;;1.98;;
67564;SDS011;54393;53.556;49.216;2023-07-13T12:59:57;3.12;;;2.00;;
67564;SDS011;54393;53.556;49.216;2023-07-13T13:02:30;2.80;;;2.60;;
67564;SDS011;54393;53.556;49.216;2023-07-13T13:05:00;3.17;;;2.10;;
67564;SDS011;54393;53.556;49.216;2023-07-13T13:07:29;4.12;;;2.62;;
67564;SDS011;54393;53.556;49.216;2023-07-13T13:09:56;4.45;;;2.70;;
67564;SDS011;54393;53.556;49.216;2023-07-13T13:12:23;3.10;;;2.22;;
67564;SDS011;54393;53.556;49.216;2023-07-13T13:14:51;2.40;;;2.17;;
67564;SDS011;54393;53.556;49.216;2023-07-13T13:17:22;2.30;;;2.10;;
67564;SDS011;54393;53.556;49.216;2023-07-13T13:19:52;2.28;;;2.05;;
67564;SDS011;54393;53.556;49.216;2023-07-13T13:22:19;2.58;;;1.90;;
67564;SDS011;54393;53.556;49.216;2023-07-13T13:24:46;2.60;;;2.20;;
67564;SDS011;54393;53.556;49.216;2023-07-13T13:27:14;2.42;;;2.22;;
67564;SDS011;54393;53.556;49.216;2023-07-13T13:29:45;3.50;;;2.28;;
67564;SDS011;54393;53.556;49.216;2023-07-13T13:32:13;2.00;;;1.80;;
67564;SDS011;54393;53.556;49.216;2023-07-13T13:34:40;1.83;;;1.55;;
67564;SDS011;54393;53.556;49.216;2023-07-13T13:37:17;2.08;;;1.80;;
67564;SDS011;54393;53.556;49.216;2023-07-13T13:39:48;2.30;;;1.90;;
67564;SDS011;54393;53.556;49.216;2023-07-13T13:42:16;2.08;;;1.67;;
67564;SDS011;54393;53.556;49.216;2023-07-13T13:44:42;2.40;;;2.03;;
67564;SDS011;54393;53.556;49.216;2023-07-13T13:49:55;2.67;;;1.77;;
67564;SDS011;54393;53.556;49.216;2023-07-13T13:52:21;3.72;;;2.30;;
67564;SDS011;54393;53.556;49.216;2023-07-13T13:54:49;4.40;;;2.90;;
67564;SDS011;54393;53.556;49.216;2023-07-13T13:57:21;2.72;;;2.10;;
67564;SDS011;54393;53.556;49.216;2023-07-13T13:59:49;3.08;;;1.80;;
67564;SDS011;54393;53.556;49.216;2023-07-13T14:02:26;2.10;;;1.90;;
67564;SDS011;54393;53.556;49.216;2023-07-13T14:04:55;1.83;;;1.55;;
67564;SDS011;54393;53.556;49.216;2023-07-13T14:07:26;2.53;;;1.90;;
67564;SDS011;54393;53.556;49.216;2023-07-13T14:09:57;2.30;;;2.05;;
67564;SDS011;54393;53.556;49.216;2023-07-13T14:12:26;2.45;;;1.80;;
67564;SDS011;54393;53.556;49.216;2023-07-13T14:14:56;1.90;;;1.80;;
67564;SDS011;54393;53.556;49.216;2023-07-13T14:17:24;1.70;;;1.60;;
67564;SDS011;54393;53.556;49.216;2023-07-13T14:19:52;2.33;;;1.87;;
67564;SDS011;54393;53.556;49.216;2023-07-13T14:22:26;1.92;;;1.73;;
67564;SDS011;54393;53.556;49.216;2023-07-13T14:24:53;3.45;;;1.73;;
67564;SDS011;54393;53.556;49.216;2023-07-13T14:27:20;3.42;;;1.73;;
67564;SDS011;54393;53.556;49.216;2023-07-13T14:29:48;2.47;;;2.08;;
67564;SDS011;54393;53.556;49.216;2023-07-13T14:32:16;1.73;;;1.62;;
67564;SDS011;54393;53.556;49.216;2023-07-13T14:34:42;2.10;;;1.50;;
67564;SDS011;54393;53.556;49.216;2023-07-13T14:37:13;2.30;;;1.77;;
67564;SDS011;54393;53.556;49.216;2023-07-13T14:39:42;2.60;;;1.92;;
67564;SDS011;54393;53.556;49.216;2023-07-13T14:42:09;1.90;;;1.70;;
67564;SDS011;54393;53.556;49.216;2023-07-13T14:44:37;1.77;;;1.60;;
67564;SDS011;54393;53.556;49.216;2023-07-13T14:47:05;1.73;;;1.60;;
67564;SDS011;54393;53.556;49.216;2023-07-13T14:49:36;2.40;;;2.20;;
67564;SDS011;54393;53.556;49.216;2023-07-13T14:52:14;2.03;;;1.55;;
67564;SDS011;54393;53.556;49.216;2023-07-13T14:54:44;2.17;;;1.67;;
67564;SDS011;54393;53.556;49.216;2023-07-13T14:57:15;1.92;;;1.83;;
67564;SDS011;54393;53.556;49.216;2023-07-13T14:59:43;1.60;;;1.50;;
67564;SDS011;54393;53.556;49.216;2023-07-13T15:02:30;3.42;;;1.67;;
67564;SDS011;54393;53.556;49.216;2023-07-13T15:05:00;3.55;;;2.20;;
67564;SDS011;54393;53.556;49.216;2023-07-13T15:07:30;1.77;;;1.67;;
67564;SDS011;54393;53.556;49.216;2023-07-13T15:09:58;2.22;;;1.80;;
67564;SDS011;54393;53.556;49.216;2023-07-13T15:12:24;2.08;;;1.70;;
67564;SDS011;54393;53.556;49.216;2023-07-13T15:14:51;1.55;;;1.45;;
67564;SDS011;54393;53.556;49.216;2023-07-13T15:17:22;1.73;;;1.60;;
67564;SDS011;54393;53.556;49.216;2023-07-13T15:19:53;1.85;;;1.75;;
67564;SDS011;54393;53.556;49.216;2023-07-13T15:22:21;1.92;;;1.55;;
67564;SDS011;54393;53.556;49.216;2023-07-13T15:24:48;1.98;;;1.58;;
67564;SDS011;54393;53.556;49.216;2023-07-13T15:27:14;1.75;;;1.65;;